sensor_id;sensor_type;location;lat;lon;timestamp;P1;durP1;ratioP1;P2;durP2;ratioP2
64932;SDS011;51446;53.850;10.662;2023-07-22T00:00:47;8.83;;;7.20;;
64932;SDS011;51446;53.850;10.662;2023-07-22T00:03:12;9.33;;;6.67;;
64932;SDS011;51446;53.850;10.662;2023-07-22T00:05:39;8.77;;;6.37;;
64932;SDS011;51446;53.850;10.662;2023-07-22T00:08:04;8.77;;;6.22;;
64932;SDS011;51446;53.850;10.662;2023-07-22T00:10:30;8.37;;;5.53;;
64932;SDS011;51446;53.850;10.662;2023-07-22T00:12:55;10.37;;;6.53;;
64932;SDS011;51446;53.850;10.662;2023-07-22T00:15:20;9.60;;;5.87;;
64932;SDS011;51446;53.850;10.662;2023-07-22T00:17:47;9.05;;;5.80;;
64932;SDS011;51446;53.850;10.662;2023-07-22T00:20:13;9.27;;;5.60;;
64932;SDS011;51446;53.850;10.662;2023-07-22T00:22:39;10.68;;;6.15;;
64932;SDS011;51446;53.850;10.662;2023-07-22T00:25:04;13.07;;;6.43;;
64932;SDS011;51446;53.850;10.662;2023-07-22T00:27:40;7.22;;;5.93;;
64932;SDS011;51446;53.850;10.662;2023-07-22T00:30:06;10.50;;;5.43;;
64932;SDS011;51446;53.850;10.662;2023-07-22T00:32:32;7.85;;;5.75;;
64932;SDS011;51446;53.850;10.662;2023-07-22T00:34:58;9.65;;;5.90;;
64932;SDS011;51446;53.850;10.662;2023-07-22T00:37:23;11.33;;;5.90;;
64932;SDS011;51446;53.850;10.662;2023-07-22T00:39:48;9.07;;;5.67;;
64932;SDS011;51446;53.850;10.662;2023-07-22T00:42:14;6.07;;;5.40;;
64932;SDS011;51446;53.850;10.662;2023-07-22T00:44:39;8.93;;;5.87;;
64932;SDS011;51446;53.850;10.662;2023-07-22T00:47:04;9.17;;;5.70;;
64932;SDS011;51446;53.850;10.662;2023-07-22T00:49:30;7.20;;;5.60;;
64932;SDS011;51446;53.850;10.662;2023-07-22T00:51:56;7.27;;;5.60;;
64932;SDS011;51446;53.850;10.662;2023-07-22T00:54:27;9.48;;;6.05;;
64932;SDS011;51446;53.850;10.662;2023-07-22T00:56:52;10.93;;;6.97;;
64932;SDS011;51446;53.850;10.662;2023-07-22T00:59:19;9.48;;;6.10;;
64932;SDS011;51446;53.850;10.662;2023-07-22T01:01:45;8.95;;;6.15;;
64932;SDS011;51446;53.850;10.662;2023-07-22T01:04:13;13.83;;;6.50;;
64932;SDS011;51446;53.850;10.662;2023-07-22T01:06:40;10.98;;;6.57;;
64932;SDS011;51446;53.850;10.662;2023-07-22T01:09:05;8.97;;;6.27;;
64932;SDS011;51446;53.850;10.662;2023-07-22T01:11:32;14.68;;;6.35;;
64932;SDS011;51446;53.850;10.662;2023-07-22T01:13:57;10.63;;;6.53;;
64932;SDS011;51446;53.850;10.662;2023-07-22T01:16:25;9.15;;;6.32;;
64932;SDS011;51446;53.850;10.662;2023-07-22T01:18:52;13.57;;;6.40;;
64932;SDS011;51446;53.850;10.662;2023-07-22T01:21:19;9.00;;;6.23;;
64932;SDS011;51446;53.850;10.662;2023-07-22T01:23:45;10.73;;;6.05;;
64932;SDS011;51446;53.850;10.662;2023-07-22T01:26:12;10.75;;;6.50;;
64932;SDS011;51446;53.850;10.662;2023-07-22T01:28:37;12.43;;;6.33;;
64932;SDS011;51446;53.850;10.662;2023-07-22T01:31:02;13.70;;;6.43;;
64932;SDS011;51446;53.850;10.662;2023-07-22T01:33:30;11.73;;;7.32;;
64932;SDS011;51446;53.850;10.662;2023-07-22T01:35:55;11.77;;;6.63;;
64932;SDS011;51446;53.850;10.662;2023-07-22T01:38:21;9.37;;;5.83;;
64932;SDS011;51446;53.850;10.662;2023-07-22T01:40:46;10.13;;;6.38;;
64932;SDS011;51446;53.850;10.662;2023-07-22T01:43:12;12.40;;;7.10;;
64932;SDS011;51446;53.850;10.662;2023-07-22T01:45:37;9.63;;;6.37;;
64932;SDS011;51446;53.850;10.662;2023-07-22T01:48:03;13.80;;;6.63;;
64932;SDS011;51446;53.850;10.662;2023-07-22T01:50:29;12.87;;;6.70;;
64932;SDS011;51446;53.850;10.662;2023-07-22T01:52:54;11.70;;;7.20;;
64932;SDS011;51446;53.850;10.662;2023-07-22T01:55:19;13.93;;;7.07;;
64932;SDS011;51446;53.850;10.662;2023-07-22T01:57:44;10.33;;;6.27;;
64932;SDS011;51446;53.850;10.662;2023-07-22T02:00:10;14.00;;;6.63;;
64932;SDS011;51446;53.850;10.662;2023-07-22T02:02:36;8.85;;;6.13;;
64932;SDS011;51446;53.850;10.662;2023-07-22T02:05:01;12.18;;;6.95;;
64932;SDS011;51446;53.850;10.662;2023-07-22T02:07:27;13.40;;;7.00;;
64932;SDS011;51446;53.850;10.662;2023-07-22T02:09:53;12.48;;;7.15;;
64932;SDS011;51446;53.850;10.662;2023-07-22T02:12:19;12.67;;;6.83;;
64932;SDS011;51446;53.850;10.662;2023-07-22T02:14:44;11.00;;;6.57;;
64932;SDS011;51446;53.850;10.662;2023-07-22T02:17:10;10.02;;;6.82;;
64932;SDS011;51446;53.850;10.662;2023-07-22T02:19:35;12.20;;;7.90;;
64932;SDS011;51446;53.850;10.662;2023-07-22T02:22:02;11.23;;;6.70;;
64932;SDS011;51446;53.850;10.662;2023-07-22T02:24:28;12.03;;;7.63;;
64932;SDS011;51446;53.850;10.662;2023-07-22T02:26:53;13.87;;;7.10;;
64932;SDS011;51446;53.850;10.662;2023-07-22T02:29:18;11.47;;;7.10;;
64932;SDS011;51446;53.850;10.662;2023-07-22T02:31:44;15.93;;;6.78;;
64932;SDS011;51446;53.850;10.662;2023-07-22T02:34:11;17.83;;;7.85;;
64932;SDS011;51446;53.850;10.662;2023-07-22T02:36:36;12.70;;;6.80;;
64932;SDS011;51446;53.850;10.662;2023-07-22T02:39:02;13.60;;;6.70;;
64932;SDS011;51446;53.850;10.662;2023-07-22T02:41:28;12.15;;;6.90;;
64932;SDS011;51446;53.850;10.662;2023-07-22T02:43:53;15.33;;;7.30;;
64932;SDS011;51446;53.850;10.662;2023-07-22T02:46:18;12.97;;;7.20;;
64932;SDS011;51446;53.850;10.662;2023-07-22T02:48:44;15.10;;;7.03;;
64932;SDS011;51446;53.850;10.662;2023-07-22T02:51:09;13.25;;;6.75;;
64932;SDS011;51446;53.850;10.662;2023-07-22T02:53:37;18.13;;;7.45;;
64932;SDS011;51446;53.850;10.662;2023-07-22T02:56:03;16.33;;;7.20;;
64932;SDS011;51446;53.850;10.662;2023-07-22T02:58:29;16.63;;;7.25;;
64932;SDS011;51446;53.850;10.662;2023-07-22T03:00:54;16.50;;;7.60;;
64932;SDS011;51446;53.850;10.662;2023-07-22T03:03:22;14.43;;;7.10;;
64932;SDS011;51446;53.850;10.662;2023-07-22T03:05:47;12.77;;;7.33;;
64932;SDS011;51446;53.850;10.662;2023-07-22T03:08:13;13.60;;;7.80;;
64932;SDS011;51446;53.850;10.662;2023-07-22T03:10:38;18.10;;;8.80;;
64932;SDS011;51446;53.850;10.662;2023-07-22T03:13:03;14.73;;;7.83;;
64932;SDS011;51446;53.850;10.662;2023-07-22T03:15:29;15.27;;;8.17;;
64932;SDS011;51446;53.850;10.662;2023-07-22T03:17:55;13.57;;;7.70;;
64932;SDS011;51446;53.850;10.662;2023-07-22T03:20:21;15.30;;;8.45;;
64932;SDS011;51446;53.850;10.662;2023-07-22T03:22:47;19.15;;;8.07;;
64932;SDS011;51446;53.850;10.662;2023-07-22T03:25:13;18.87;;;8.53;;
64932;SDS011;51446;53.850;10.662;2023-07-22T03:27:41;13.73;;;7.90;;
64932;SDS011;51446;53.850;10.662;2023-07-22T03:30:07;15.63;;;8.23;;
64932;SDS011;51446;53.850;10.662;2023-07-22T03:32:33;16.37;;;8.23;;
64932;SDS011;51446;53.850;10.662;2023-07-22T03:34:59;14.35;;;8.13;;
64932;SDS011;51446;53.850;10.662;2023-07-22T03:37:25;15.90;;;8.30;;
64932;SDS011;51446;53.850;10.662;2023-07-22T03:39:50;15.03;;;7.97;;
64932;SDS011;51446;53.850;10.662;2023-07-22T03:42:15;20.20;;;8.53;;
64932;SDS011;51446;53.850;10.662;2023-07-22T03:44:41;18.07;;;8.93;;
64932;SDS011;51446;53.850;10.662;2023-07-22T03:47:06;13.07;;;7.25;;
64932;SDS011;51446;53.850;10.662;2023-07-22T03:49:32;15.67;;;7.63;;
64932;SDS011;51446;53.850;10.662;2023-07-22T03:51:57;24.87;;;8.17;;
64932;SDS011;51446;53.850;10.662;2023-07-22T03:54:22;14.40;;;7.77;;
64932;SDS011;51446;53.850;10.662;2023-07-22T03:56:47;15.73;;;7.73;;
64932;SDS011;51446;53.850;10.662;2023-07-22T03:59:13;14.67;;;7.30;;
64932;SDS011;51446;53.850;10.662;2023-07-22T04:01:38;19.23;;;8.20;;
64932;SDS011;51446;53.850;10.662;2023-07-22T04:04:03;14.77;;;7.50;;
64932;SDS011;51446;53.850;10.662;2023-07-22T04:06:29;14.47;;;7.07;;
64932;SDS011;51446;53.850;10.662;2023-07-22T04:08:54;13.37;;;6.40;;
64932;SDS011;51446;53.850;10.662;2023-07-22T04:11:19;16.40;;;7.43;;
64932;SDS011;51446;53.850;10.662;2023-07-22T04:13:44;12.53;;;6.77;;
64932;SDS011;51446;53.850;10.662;2023-07-22T04:16:09;13.97;;;6.77;;
64932;SDS011;51446;53.850;10.662;2023-07-22T04:18:35;15.70;;;7.10;;
64932;SDS011;51446;53.850;10.662;2023-07-22T04:21:00;14.67;;;6.73;;
64932;SDS011;51446;53.850;10.662;2023-07-22T04:23:26;13.43;;;6.43;;
64932;SDS011;51446;53.850;10.662;2023-07-22T04:25:52;18.45;;;6.97;;
64932;SDS011;51446;53.850;10.662;2023-07-22T04:28:18;22.30;;;7.20;;
64932;SDS011;51446;53.850;10.662;2023-07-22T04:30:43;13.67;;;6.67;;
64932;SDS011;51446;53.850;10.662;2023-07-22T04:33:20;15.80;;;6.85;;
64932;SDS011;51446;53.850;10.662;2023-07-22T04:35:45;11.07;;;6.37;;
64932;SDS011;51446;53.850;10.662;2023-07-22T04:38:10;13.07;;;6.37;;
64932;SDS011;51446;53.850;10.662;2023-07-22T04:40:36;19.97;;;6.23;;
64932;SDS011;51446;53.850;10.662;2023-07-22T04:43:01;12.60;;;6.60;;
64932;SDS011;51446;53.850;10.662;2023-07-22T04:45:27;12.35;;;6.30;;
64932;SDS011;51446;53.850;10.662;2023-07-22T04:47:52;15.40;;;6.15;;
64932;SDS011;51446;53.850;10.662;2023-07-22T04:50:18;16.88;;;7.25;;
64932;SDS011;51446;53.850;10.662;2023-07-22T04:52:46;15.17;;;6.13;;
64932;SDS011;51446;53.850;10.662;2023-07-22T04:55:13;14.60;;;6.65;;
64932;SDS011;51446;53.850;10.662;2023-07-22T04:57:38;9.48;;;5.97;;
64932;SDS011;51446;53.850;10.662;2023-07-22T05:00:06;14.15;;;6.57;;
64932;SDS011;51446;53.850;10.662;2023-07-22T05:02:34;13.48;;;6.30;;
64932;SDS011;51446;53.850;10.662;2023-07-22T05:04:59;13.85;;;6.53;;
64932;SDS011;51446;53.850;10.662;2023-07-22T05:07:25;10.43;;;5.73;;
64932;SDS011;51446;53.850;10.662;2023-07-22T05:09:51;12.57;;;6.57;;
64932;SDS011;51446;53.850;10.662;2023-07-22T05:12:16;8.93;;;5.77;;
64932;SDS011;51446;53.850;10.662;2023-07-22T05:14:42;13.00;;;5.80;;
64932;SDS011;51446;53.850;10.662;2023-07-22T05:17:07;12.17;;;5.77;;
64932;SDS011;51446;53.850;10.662;2023-07-22T05:19:32;14.13;;;5.83;;
64932;SDS011;51446;53.850;10.662;2023-07-22T05:21:58;12.10;;;6.10;;
64932;SDS011;51446;53.850;10.662;2023-07-22T05:24:23;11.53;;;5.67;;
64932;SDS011;51446;53.850;10.662;2023-07-22T05:26:48;10.37;;;5.23;;
64932;SDS011;51446;53.850;10.662;2023-07-22T05:29:13;12.70;;;5.20;;
64932;SDS011;51446;53.850;10.662;2023-07-22T05:31:39;10.77;;;4.77;;
64932;SDS011;51446;53.850;10.662;2023-07-22T05:34:04;8.93;;;4.95;;
64932;SDS011;51446;53.850;10.662;2023-07-22T05:36:29;9.57;;;4.90;;
64932;SDS011;51446;53.850;10.662;2023-07-22T05:38:55;8.47;;;5.00;;
64932;SDS011;51446;53.850;10.662;2023-07-22T05:41:20;10.67;;;5.23;;
64932;SDS011;51446;53.850;10.662;2023-07-22T05:43:45;7.53;;;4.37;;
64932;SDS011;51446;53.850;10.662;2023-07-22T05:46:11;8.40;;;4.80;;
64932;SDS011;51446;53.850;10.662;2023-07-22T05:48:36;8.32;;;4.75;;
64932;SDS011;51446;53.850;10.662;2023-07-22T05:51:01;10.23;;;5.10;;
64932;SDS011;51446;53.850;10.662;2023-07-22T05:53:27;7.03;;;4.40;;
64932;SDS011;51446;53.850;10.662;2023-07-22T05:55:52;10.57;;;4.63;;
64932;SDS011;51446;53.850;10.662;2023-07-22T05:58:17;7.23;;;4.53;;
64932;SDS011;51446;53.850;10.662;2023-07-22T06:00:43;7.57;;;4.27;;
64932;SDS011;51446;53.850;10.662;2023-07-22T06:03:09;7.13;;;4.50;;
64932;SDS011;51446;53.850;10.662;2023-07-22T06:05:34;7.53;;;4.20;;
64932;SDS011;51446;53.850;10.662;2023-07-22T06:07:59;10.53;;;4.53;;
64932;SDS011;51446;53.850;10.662;2023-07-22T06:10:24;6.87;;;4.00;;
64932;SDS011;51446;53.850;10.662;2023-07-22T06:12:50;6.40;;;3.87;;
64932;SDS011;51446;53.850;10.662;2023-07-22T06:15:15;6.47;;;3.83;;
64932;SDS011;51446;53.850;10.662;2023-07-22T06:17:40;7.30;;;3.90;;
64932;SDS011;51446;53.850;10.662;2023-07-22T06:20:06;5.53;;;3.30;;
64932;SDS011;51446;53.850;10.662;2023-07-22T06:22:32;8.35;;;3.35;;
64932;SDS011;51446;53.850;10.662;2023-07-22T06:24:57;8.80;;;3.20;;
64932;SDS011;51446;53.850;10.662;2023-07-22T06:27:22;7.27;;;3.57;;
64932;SDS011;51446;53.850;10.662;2023-07-22T06:29:47;6.20;;;3.20;;
64932;SDS011;51446;53.850;10.662;2023-07-22T06:32:13;4.87;;;2.70;;
64932;SDS011;51446;53.850;10.662;2023-07-22T06:34:38;5.50;;;2.70;;
64932;SDS011;51446;53.850;10.662;2023-07-22T06:37:03;8.67;;;3.20;;
64932;SDS011;51446;53.850;10.662;2023-07-22T06:39:29;4.30;;;2.67;;
64932;SDS011;51446;53.850;10.662;2023-07-22T06:41:54;6.03;;;2.50;;
64932;SDS011;51446;53.850;10.662;2023-07-22T06:44:20;3.60;;;2.70;;
64932;SDS011;51446;53.850;10.662;2023-07-22T06:46:45;4.27;;;2.90;;
64932;SDS011;51446;53.850;10.662;2023-07-22T06:49:11;5.28;;;2.50;;
64932;SDS011;51446;53.850;10.662;2023-07-22T06:51:36;5.83;;;2.47;;
64932;SDS011;51446;53.850;10.662;2023-07-22T06:54:02;4.53;;;2.43;;
64932;SDS011;51446;53.850;10.662;2023-07-22T06:56:28;4.55;;;1.90;;
64932;SDS011;51446;53.850;10.662;2023-07-22T06:58:53;3.43;;;2.10;;
64932;SDS011;51446;53.850;10.662;2023-07-22T07:01:18;4.07;;;1.87;;
64932;SDS011;51446;53.850;10.662;2023-07-22T07:03:43;5.33;;;1.90;;
64932;SDS011;51446;53.850;10.662;2023-07-22T07:06:09;3.27;;;1.90;;
64932;SDS011;51446;53.850;10.662;2023-07-22T07:08:34;3.93;;;1.93;;
64932;SDS011;51446;53.850;10.662;2023-07-22T07:10:59;3.10;;;1.50;;
64932;SDS011;51446;53.850;10.662;2023-07-22T07:13:26;2.90;;;1.40;;
64932;SDS011;51446;53.850;10.662;2023-07-22T07:15:51;3.03;;;1.83;;
64932;SDS011;51446;53.850;10.662;2023-07-22T07:18:16;4.37;;;1.53;;
64932;SDS011;51446;53.850;10.662;2023-07-22T07:20:42;2.72;;;1.50;;
64932;SDS011;51446;53.850;10.662;2023-07-22T07:23:08;3.23;;;1.30;;
64932;SDS011;51446;53.850;10.662;2023-07-22T07:25:33;2.33;;;1.30;;
64932;SDS011;51446;53.850;10.662;2023-07-22T07:27:58;4.50;;;1.37;;
64932;SDS011;51446;53.850;10.662;2023-07-22T07:30:23;6.60;;;1.50;;
64932;SDS011;51446;53.850;10.662;2023-07-22T07:32:49;7.20;;;1.60;;
64932;SDS011;51446;53.850;10.662;2023-07-22T07:35:14;5.30;;;1.37;;
64932;SDS011;51446;53.850;10.662;2023-07-22T07:37:39;5.40;;;1.40;;
64932;SDS011;51446;53.850;10.662;2023-07-22T07:40:05;5.13;;;1.33;;
64932;SDS011;51446;53.850;10.662;2023-07-22T07:42:30;4.18;;;1.30;;
64932;SDS011;51446;53.850;10.662;2023-07-22T07:44:56;6.17;;;1.50;;
64932;SDS011;51446;53.850;10.662;2023-07-22T07:47:21;2.90;;;1.13;;
64932;SDS011;51446;53.850;10.662;2023-07-22T07:49:46;1.57;;;1.20;;
64932;SDS011;51446;53.850;10.662;2023-07-22T07:52:12;1.67;;;1.00;;
64932;SDS011;51446;53.850;10.662;2023-07-22T07:54:37;4.47;;;1.00;;
64932;SDS011;51446;53.850;10.662;2023-07-22T07:57:02;2.22;;;1.00;;
64932;SDS011;51446;53.850;10.662;2023-07-22T07:59:28;3.60;;;1.20;;
64932;SDS011;51446;53.850;10.662;2023-07-22T08:01:53;2.30;;;1.20;;
64932;SDS011;51446;53.850;10.662;2023-07-22T08:04:18;3.77;;;1.03;;
64932;SDS011;51446;53.850;10.662;2023-07-22T08:06:44;3.03;;;1.10;;
64932;SDS011;51446;53.850;10.662;2023-07-22T08:09:10;1.63;;;1.00;;
64932;SDS011;51446;53.850;10.662;2023-07-22T08:11:36;4.33;;;1.30;;
64932;SDS011;51446;53.850;10.662;2023-07-22T08:14:02;4.78;;;1.33;;
64932;SDS011;51446;53.850;10.662;2023-07-22T08:16:27;2.33;;;1.30;;
64932;SDS011;51446;53.850;10.662;2023-07-22T08:18:53;5.93;;;1.10;;
64932;SDS011;51446;53.850;10.662;2023-07-22T08:21:18;1.90;;;1.00;;
64932;SDS011;51446;53.850;10.662;2023-07-22T08:23:44;1.80;;;1.08;;
64932;SDS011;51446;53.850;10.662;2023-07-22T08:26:11;4.20;;;1.20;;
64932;SDS011;51446;53.850;10.662;2023-07-22T08:28:37;2.20;;;1.00;;
64932;SDS011;51446;53.850;10.662;2023-07-22T08:31:02;3.20;;;1.10;;
64932;SDS011;51446;53.850;10.662;2023-07-22T08:33:28;1.92;;;0.98;;
64932;SDS011;51446;53.850;10.662;2023-07-22T08:35:54;1.75;;;1.00;;
64932;SDS011;51446;53.850;10.662;2023-07-22T08:38:19;1.63;;;0.93;;
64932;SDS011;51446;53.850;10.662;2023-07-22T08:40:47;3.47;;;1.00;;
64932;SDS011;51446;53.850;10.662;2023-07-22T08:43:15;3.35;;;1.27;;
64932;SDS011;51446;53.850;10.662;2023-07-22T08:45:43;3.27;;;0.80;;
64932;SDS011;51446;53.850;10.662;2023-07-22T08:48:09;2.38;;;1.02;;
64932;SDS011;51446;53.850;10.662;2023-07-22T08:50:58;2.10;;;0.93;;
64932;SDS011;51446;53.850;10.662;2023-07-22T08:53:23;3.17;;;1.05;;
64932;SDS011;51446;53.850;10.662;2023-07-22T08:55:50;2.13;;;1.08;;
64932;SDS011;51446;53.850;10.662;2023-07-22T08:58:16;1.92;;;1.10;;
64932;SDS011;51446;53.850;10.662;2023-07-22T09:00:41;1.90;;;1.03;;
64932;SDS011;51446;53.850;10.662;2023-07-22T09:03:08;1.92;;;1.05;;
64932;SDS011;51446;53.850;10.662;2023-07-22T09:05:34;1.90;;;1.17;;
64932;SDS011;51446;53.850;10.662;2023-07-22T09:08:04;3.37;;;1.10;;
64932;SDS011;51446;53.850;10.662;2023-07-22T09:10:31;1.70;;;1.10;;
64932;SDS011;51446;53.850;10.662;2023-07-22T09:12:58;1.98;;;1.05;;
64932;SDS011;51446;53.850;10.662;2023-07-22T09:15:24;3.13;;;1.30;;
64932;SDS011;51446;53.850;10.662;2023-07-22T09:17:50;3.13;;;1.08;;
64932;SDS011;51446;53.850;10.662;2023-07-22T09:20:16;3.27;;;1.43;;
64932;SDS011;51446;53.850;10.662;2023-07-22T09:22:45;3.67;;;1.77;;
64932;SDS011;51446;53.850;10.662;2023-07-22T09:27:42;2.87;;;1.13;;
64932;SDS011;51446;53.850;10.662;2023-07-22T09:32:55;2.50;;;1.60;;
64932;SDS011;51446;53.850;10.662;2023-07-22T09:35:22;4.32;;;1.83;;
64932;SDS011;51446;53.850;10.662;2023-07-22T09:37:49;5.78;;;1.88;;
64932;SDS011;51446;53.850;10.662;2023-07-22T09:42:42;7.33;;;1.90;;
64932;SDS011;51446;53.850;10.662;2023-07-22T09:45:09;3.60;;;1.70;;
64932;SDS011;51446;53.850;10.662;2023-07-22T09:47:44;3.97;;;1.60;;
64932;SDS011;51446;53.850;10.662;2023-07-22T09:50:14;2.75;;;1.50;;
64932;SDS011;51446;53.850;10.662;2023-07-22T09:52:42;3.28;;;1.60;;
64932;SDS011;51446;53.850;10.662;2023-07-22T09:55:15;2.30;;;1.80;;
64932;SDS011;51446;53.850;10.662;2023-07-22T09:57:43;3.45;;;1.35;;
64932;SDS011;51446;53.850;10.662;2023-07-22T10:00:15;3.33;;;1.20;;
64932;SDS011;51446;53.850;10.662;2023-07-22T10:02:44;3.70;;;1.52;;
64932;SDS011;51446;53.850;10.662;2023-07-22T10:05:11;4.15;;;1.40;;
64932;SDS011;51446;53.850;10.662;2023-07-22T10:07:40;4.10;;;1.50;;
64932;SDS011;51446;53.850;10.662;2023-07-22T10:10:10;2.20;;;1.38;;
64932;SDS011;51446;53.850;10.662;2023-07-22T10:12:36;1.90;;;1.50;;
64932;SDS011;51446;53.850;10.662;2023-07-22T10:15:04;1.73;;;1.30;;
64932;SDS011;51446;53.850;10.662;2023-07-22T10:17:30;3.67;;;1.38;;
64932;SDS011;51446;53.850;10.662;2023-07-22T10:19:56;2.80;;;1.43;;
64932;SDS011;51446;53.850;10.662;2023-07-22T10:22:22;3.78;;;1.40;;
64932;SDS011;51446;53.850;10.662;2023-07-22T10:24:48;1.80;;;1.27;;
64932;SDS011;51446;53.850;10.662;2023-07-22T10:27:14;1.97;;;1.30;;
64932;SDS011;51446;53.850;10.662;2023-07-22T10:29:41;1.85;;;1.20;;
64932;SDS011;51446;53.850;10.662;2023-07-22T10:32:08;1.77;;;1.20;;
64932;SDS011;51446;53.850;10.662;2023-07-22T10:34:33;2.90;;;1.10;;
64932;SDS011;51446;53.850;10.662;2023-07-22T10:36:58;1.67;;;1.00;;
64932;SDS011;51446;53.850;10.662;2023-07-22T10:39:24;2.67;;;1.10;;
64932;SDS011;51446;53.850;10.662;2023-07-22T10:42:05;3.88;;;1.27;;
64932;SDS011;51446;53.850;10.662;2023-07-22T10:44:32;6.30;;;1.83;;
64932;SDS011;51446;53.850;10.662;2023-07-22T10:47:08;3.03;;;1.33;;
64932;SDS011;51446;53.850;10.662;2023-07-22T10:49:42;2.42;;;1.10;;
64932;SDS011;51446;53.850;10.662;2023-07-22T10:52:12;3.33;;;1.70;;
64932;SDS011;51446;53.850;10.662;2023-07-22T10:54:39;3.92;;;1.45;;
64932;SDS011;51446;53.850;10.662;2023-07-22T10:57:25;2.17;;;1.27;;
64932;SDS011;51446;53.850;10.662;2023-07-22T10:59:50;2.70;;;1.20;;
64932;SDS011;51446;53.850;10.662;2023-07-22T11:02:24;2.55;;;1.25;;
64932;SDS011;51446;53.850;10.662;2023-07-22T11:04:50;2.78;;;1.40;;
64932;SDS011;51446;53.850;10.662;2023-07-22T11:07:15;3.03;;;1.37;;
64932;SDS011;51446;53.850;10.662;2023-07-22T11:09:55;2.47;;;1.20;;
64932;SDS011;51446;53.850;10.662;2023-07-22T11:12:20;2.20;;;1.17;;
64932;SDS011;51446;53.850;10.662;2023-07-22T11:14:50;2.50;;;1.15;;
64932;SDS011;51446;53.850;10.662;2023-07-22T11:17:17;3.43;;;1.20;;
64932;SDS011;51446;53.850;10.662;2023-07-22T11:19:51;1.35;;;1.02;;
64932;SDS011;51446;53.850;10.662;2023-07-22T11:22:17;1.73;;;0.93;;
64932;SDS011;51446;53.850;10.662;2023-07-22T11:24:42;2.83;;;1.20;;
64932;SDS011;51446;53.850;10.662;2023-07-22T11:27:08;3.67;;;1.30;;
64932;SDS011;51446;53.850;10.662;2023-07-22T11:29:34;5.75;;;0.88;;
64932;SDS011;51446;53.850;10.662;2023-07-22T11:32:00;3.17;;;0.90;;
64932;SDS011;51446;53.850;10.662;2023-07-22T11:34:26;2.83;;;0.90;;
64932;SDS011;51446;53.850;10.662;2023-07-22T11:36:52;3.67;;;0.70;;
64932;SDS011;51446;53.850;10.662;2023-07-22T11:39:20;3.40;;;0.77;;
64932;SDS011;51446;53.850;10.662;2023-07-22T11:41:47;3.28;;;0.90;;
64932;SDS011;51446;53.850;10.662;2023-07-22T11:44:15;1.73;;;0.80;;
64932;SDS011;51446;53.850;10.662;2023-07-22T11:46:51;1.70;;;0.80;;
64932;SDS011;51446;53.850;10.662;2023-07-22T11:49:25;1.30;;;0.80;;
64932;SDS011;51446;53.850;10.662;2023-07-22T11:51:59;0.77;;;0.63;;
64932;SDS011;51446;53.850;10.662;2023-07-22T11:54:34;1.73;;;0.70;;
64932;SDS011;51446;53.850;10.662;2023-07-22T11:57:14;1.98;;;0.88;;
64932;SDS011;51446;53.850;10.662;2023-07-22T11:59:44;1.05;;;0.80;;
64932;SDS011;51446;53.850;10.662;2023-07-22T12:02:17;3.17;;;1.13;;
64932;SDS011;51446;53.850;10.662;2023-07-22T12:04:51;0.95;;;0.73;;
64932;SDS011;51446;53.850;10.662;2023-07-22T12:07:25;1.63;;;0.82;;
64932;SDS011;51446;53.850;10.662;2023-07-22T12:09:55;4.90;;;1.30;;
64932;SDS011;51446;53.850;10.662;2023-07-22T12:15:11;1.73;;;1.00;;
64932;SDS011;51446;53.850;10.662;2023-07-22T12:17:44;2.45;;;1.10;;
64932;SDS011;51446;53.850;10.662;2023-07-22T12:20:10;2.03;;;1.02;;
64932;SDS011;51446;53.850;10.662;2023-07-22T12:22:36;3.53;;;1.10;;
64932;SDS011;51446;53.850;10.662;2023-07-22T12:25:01;1.97;;;1.30;;
64932;SDS011;51446;53.850;10.662;2023-07-22T12:27:26;2.00;;;1.23;;
64932;SDS011;51446;53.850;10.662;2023-07-22T12:29:52;2.57;;;1.30;;
64932;SDS011;51446;53.850;10.662;2023-07-22T12:32:17;1.40;;;1.07;;
64932;SDS011;51446;53.850;10.662;2023-07-22T12:34:42;2.13;;;1.10;;
64932;SDS011;51446;53.850;10.662;2023-07-22T12:37:07;1.27;;;1.17;;
64932;SDS011;51446;53.850;10.662;2023-07-22T12:39:33;1.60;;;1.10;;
64932;SDS011;51446;53.850;10.662;2023-07-22T12:41:58;2.17;;;1.30;;
64932;SDS011;51446;53.850;10.662;2023-07-22T12:44:23;3.67;;;1.47;;
64932;SDS011;51446;53.850;10.662;2023-07-22T12:46:48;3.00;;;1.50;;
64932;SDS011;51446;53.850;10.662;2023-07-22T12:49:14;2.63;;;1.60;;
64932;SDS011;51446;53.850;10.662;2023-07-22T12:51:39;1.50;;;1.40;;
64932;SDS011;51446;53.850;10.662;2023-07-22T12:54:04;3.07;;;1.67;;
64932;SDS011;51446;53.850;10.662;2023-07-22T12:56:29;2.47;;;1.63;;
64932;SDS011;51446;53.850;10.662;2023-07-22T12:58:54;1.90;;;1.60;;
64932;SDS011;51446;53.850;10.662;2023-07-22T13:01:20;3.87;;;1.90;;
64932;SDS011;51446;53.850;10.662;2023-07-22T13:03:45;2.40;;;1.60;;
64932;SDS011;51446;53.850;10.662;2023-07-22T13:06:10;3.17;;;1.80;;
64932;SDS011;51446;53.850;10.662;2023-07-22T13:08:35;2.17;;;1.60;;
64932;SDS011;51446;53.850;10.662;2023-07-22T13:11:01;4.03;;;1.70;;
64932;SDS011;51446;53.850;10.662;2023-07-22T13:13:26;2.50;;;1.43;;
64932;SDS011;51446;53.850;10.662;2023-07-22T13:15:51;3.57;;;1.80;;
64932;SDS011;51446;53.850;10.662;2023-07-22T13:18:16;2.43;;;1.70;;
64932;SDS011;51446;53.850;10.662;2023-07-22T13:20:42;3.47;;;1.90;;
64932;SDS011;51446;53.850;10.662;2023-07-22T13:23:07;2.53;;;1.60;;
64932;SDS011;51446;53.850;10.662;2023-07-22T13:25:33;3.17;;;1.90;;
64932;SDS011;51446;53.850;10.662;2023-07-22T13:27:58;3.80;;;1.70;;
64932;SDS011;51446;53.850;10.662;2023-07-22T13:30:23;3.67;;;2.13;;
64932;SDS011;51446;53.850;10.662;2023-07-22T13:32:49;3.83;;;2.23;;
64932;SDS011;51446;53.850;10.662;2023-07-22T13:35:14;2.47;;;2.00;;
64932;SDS011;51446;53.850;10.662;2023-07-22T13:37:40;3.22;;;2.33;;
64932;SDS011;51446;53.850;10.662;2023-07-22T13:40:05;5.97;;;2.30;;
64932;SDS011;51446;53.850;10.662;2023-07-22T13:42:35;3.00;;;2.13;;
64932;SDS011;51446;53.850;10.662;2023-07-22T13:45:01;3.22;;;2.20;;
64932;SDS011;51446;53.850;10.662;2023-07-22T13:47:27;3.42;;;2.40;;
64932;SDS011;51446;53.850;10.662;2023-07-22T13:49:52;5.33;;;2.57;;
64932;SDS011;51446;53.850;10.662;2023-07-22T13:52:17;3.53;;;2.57;;
64932;SDS011;51446;53.850;10.662;2023-07-22T13:54:43;4.00;;;2.63;;
64932;SDS011;51446;53.850;10.662;2023-07-22T13:57:08;5.73;;;2.53;;
64932;SDS011;51446;53.850;10.662;2023-07-22T13:59:34;3.78;;;2.63;;
64932;SDS011;51446;53.850;10.662;2023-07-22T14:01:59;5.13;;;2.83;;
64932;SDS011;51446;53.850;10.662;2023-07-22T14:04:24;4.30;;;3.07;;
64932;SDS011;51446;53.850;10.662;2023-07-22T14:06:49;4.97;;;3.20;;
64932;SDS011;51446;53.850;10.662;2023-07-22T14:09:15;6.03;;;3.30;;
64932;SDS011;51446;53.850;10.662;2023-07-22T14:11:40;5.93;;;3.50;;
64932;SDS011;51446;53.850;10.662;2023-07-22T14:14:05;5.47;;;3.40;;
64932;SDS011;51446;53.850;10.662;2023-07-22T14:16:30;6.83;;;3.27;;
64932;SDS011;51446;53.850;10.662;2023-07-22T14:18:56;5.53;;;2.90;;
64932;SDS011;51446;53.850;10.662;2023-07-22T14:21:22;4.20;;;3.10;;
64932;SDS011;51446;53.850;10.662;2023-07-22T14:23:47;5.27;;;3.10;;
64932;SDS011;51446;53.850;10.662;2023-07-22T14:26:12;4.17;;;3.13;;
64932;SDS011;51446;53.850;10.662;2023-07-22T14:28:37;4.00;;;3.07;;
64932;SDS011;51446;53.850;10.662;2023-07-22T14:31:03;5.17;;;3.20;;
64932;SDS011;51446;53.850;10.662;2023-07-22T14:33:29;3.85;;;2.67;;
64932;SDS011;51446;53.850;10.662;2023-07-22T14:35:54;3.93;;;2.80;;